Terminal Aerodrome Forecast
Issued by NWS North Platte, NE

Home | Current Version | Previous Version | Text Only | Print | Product List | Glossary On
Versions: 1 2 3 4 5 6 7 8 9 10 11 12 13 14 15
000
FTUS43 KLBF 020520
TAFVTN
TAF
KVTN 020520Z 0206/0306 23006KT P6SM SCT250
     FM021500 32007KT P6SM SKC
     FM021800 01010G16KT P6SM SKC
     FM030000 04006KT P6SM SKC=

USA.gov is the U.S. government's official web portal to all federal, state and local government web resources and services.